sensor_id;sensor_type;location;lat;lon;timestamp;temperature;humidity
20204;DHT22;10261;49.010;12.034;2023-04-01T00:00:20;10.30;99.90
20204;DHT22;10261;49.010;12.034;2023-04-01T00:01:23;10.30;99.90
20204;DHT22;10261;49.010;12.034;2023-04-01T00:02:25;10.40;99.90
20204;DHT22;10261;49.010;12.034;2023-04-01T00:03:28;10.30;99.90
20204;DHT22;10261;49.010;12.034;2023-04-01T00:04:31;10.30;99.90
20204;DHT22;10261;49.010;12.034;2023-04-01T00:05:34;10.30;99.90
20204;DHT22;10261;49.010;12.034;2023-04-01T00:06:38;10.40;99.90
20204;DHT22;10261;49.010;12.034;2023-04-01T00:07:41;10.30;99.90
20204;DHT22;10261;49.010;12.034;2023-04-01T00:08:43;10.30;99.90
20204;DHT22;10261;49.010;12.034;2023-04-01T00:09:46;10.30;99.90
20204;DHT22;10261;49.010;12.034;2023-04-01T00:10:48;10.30;99.90
20204;DHT22;10261;49.010;12.034;2023-04-01T00:11:51;10.30;99.90
20204;DHT22;10261;49.010;12.034;2023-04-01T00:12:54;10.40;99.90
20204;DHT22;10261;49.010;12.034;2023-04-01T00:13:56;10.30;99.90
20204;DHT22;10261;49.010;12.034;2023-04-01T00:14:59;10.30;99.90
20204;DHT22;10261;49.010;12.034;2023-04-01T00:16:02;10.30;99.90
20204;DHT22;10261;49.010;12.034;2023-04-01T00:17:20;10.30;99.90
20204;DHT22;10261;49.010;12.034;2023-04-01T00:18:24;10.40;99.90
20204;DHT22;10261;49.010;12.034;2023-04-01T00:19:26;10.30;99.90
20204;DHT22;10261;49.010;12.034;2023-04-01T00:20:29;10.30;99.90
20204;DHT22;10261;49.010;12.034;2023-04-01T00:21:31;10.30;99.90
20204;DHT22;10261;49.010;12.034;2023-04-01T00:22:35;10.30;99.90
20204;DHT22;10261;49.010;12.034;2023-04-01T00:23:37;10.30;99.90
20204;DHT22;10261;49.010;12.034;2023-04-01T00:24:40;10.30;99.90
20204;DHT22;10261;49.010;12.034;2023-04-01T00:25:43;10.30;99.90
20204;DHT22;10261;49.010;12.034;2023-04-01T00:26:47;10.30;99.90
20204;DHT22;10261;49.010;12.034;2023-04-01T00:27:49;10.40;99.90
20204;DHT22;10261;49.010;12.034;2023-04-01T00:28:52;10.30;99.90
20204;DHT22;10261;49.010;12.034;2023-04-01T00:29:54;10.30;99.90
20204;DHT22;10261;49.010;12.034;2023-04-01T00:30:57;10.30;99.90
20204;DHT22;10261;49.010;12.034;2023-04-01T00:31:59;10.30;99.90
20204;DHT22;10261;49.010;12.034;2023-04-01T00:33:02;10.30;99.90
20204;DHT22;10261;49.010;12.034;2023-04-01T00:34:05;10.30;99.90
20204;DHT22;10261;49.010;12.034;2023-04-01T00:35:08;10.30;99.90
20204;DHT22;10261;49.010;12.034;2023-04-01T00:36:12;10.30;99.90
20204;DHT22;10261;49.010;12.034;2023-04-01T00:37:15;10.30;99.90
20204;DHT22;10261;49.010;12.034;2023-04-01T00:38:18;10.30;99.90
20204;DHT22;10261;49.010;12.034;2023-04-01T00:39:21;10.30;99.90
20204;DHT22;10261;49.010;12.034;2023-04-01T00:40:26;10.30;99.90
20204;DHT22;10261;49.010;12.034;2023-04-01T00:41:30;10.30;99.90
20204;DHT22;10261;49.010;12.034;2023-04-01T00:42:32;10.30;99.90
20204;DHT22;10261;49.010;12.034;2023-04-01T00:43:35;10.30;99.90
20204;DHT22;10261;49.010;12.034;2023-04-01T00:44:38;10.40;99.90
20204;DHT22;10261;49.010;12.034;2023-04-01T00:45:42;10.40;99.90
20204;DHT22;10261;49.010;12.034;2023-04-01T00:46:44;10.30;99.90
20204;DHT22;10261;49.010;12.034;2023-04-01T00:47:47;10.40;99.90
20204;DHT22;10261;49.010;12.034;2023-04-01T00:48:51;10.30;99.90
20204;DHT22;10261;49.010;12.034;2023-04-01T00:49:56;10.30;99.90
20204;DHT22;10261;49.010;12.034;2023-04-01T00:51:01;10.30;99.90
20204;DHT22;10261;49.010;12.034;2023-04-01T00:52:08;10.30;99.90
20204;DHT22;10261;49.010;12.034;2023-04-01T00:53:13;10.20;99.90
20204;DHT22;10261;49.010;12.034;2023-04-01T00:54:19;10.30;99.90
20204;DHT22;10261;49.010;12.034;2023-04-01T00:55:23;10.30;99.90
20204;DHT22;10261;49.010;12.034;2023-04-01T00:56:30;10.30;99.90
20204;DHT22;10261;49.010;12.034;2023-04-01T00:57:35;10.30;99.90
20204;DHT22;10261;49.010;12.034;2023-04-01T00:58:42;10.30;99.90
20204;DHT22;10261;49.010;12.034;2023-04-01T00:59:48;10.30;99.90
20204;DHT22;10261;49.010;12.034;2023-04-01T01:00:52;10.30;99.90
20204;DHT22;10261;49.010;12.034;2023-04-01T01:01:56;10.30;99.90
20204;DHT22;10261;49.010;12.034;2023-04-01T01:02:58;10.30;99.90
20204;DHT22;10261;49.010;12.034;2023-04-01T01:04:01;10.30;99.90
20204;DHT22;10261;49.010;12.034;2023-04-01T01:05:04;10.30;99.90
20204;DHT22;10261;49.010;12.034;2023-04-01T01:07:41;10.30;99.90
20204;DHT22;10261;49.010;12.034;2023-04-01T01:09:06;10.30;99.90
20204;DHT22;10261;49.010;12.034;2023-04-01T01:10:16;10.40;99.90
20204;DHT22;10261;49.010;12.034;2023-04-01T01:11:25;10.30;99.90
20204;DHT22;10261;49.010;12.034;2023-04-01T01:12:40;10.30;99.90
20204;DHT22;10261;49.010;12.034;2023-04-01T01:13:52;10.30;99.90
20204;DHT22;10261;49.010;12.034;2023-04-01T01:15:07;10.30;99.90
20204;DHT22;10261;49.010;12.034;2023-04-01T01:16:18;10.20;99.90
20204;DHT22;10261;49.010;12.034;2023-04-01T01:17:32;10.20;99.90
20204;DHT22;10261;49.010;12.034;2023-04-01T01:18:40;10.20;99.90
20204;DHT22;10261;49.010;12.034;2023-04-01T01:20:03;10.20;99.90
20204;DHT22;10261;49.010;12.034;2023-04-01T01:22:00;10.20;99.90
20204;DHT22;10261;49.010;12.034;2023-04-01T01:23:44;10.30;99.90
20204;DHT22;10261;49.010;12.034;2023-04-01T01:24:58;10.30;99.90
20204;DHT22;10261;49.010;12.034;2023-04-01T01:26:25;10.20;99.90
20204;DHT22;10261;49.010;12.034;2023-04-01T01:27:34;10.20;99.90
20204;DHT22;10261;49.010;12.034;2023-04-01T01:28:49;10.20;99.90
20204;DHT22;10261;49.010;12.034;2023-04-01T01:30:12;10.30;99.90
20204;DHT22;10261;49.010;12.034;2023-04-01T01:31:20;10.40;99.90
20204;DHT22;10261;49.010;12.034;2023-04-01T01:32:55;10.30;99.90
20204;DHT22;10261;49.010;12.034;2023-04-01T01:34:11;10.30;99.90
20204;DHT22;10261;49.010;12.034;2023-04-01T01:35:21;10.30;99.90
20204;DHT22;10261;49.010;12.034;2023-04-01T01:36:26;10.30;99.90
20204;DHT22;10261;49.010;12.034;2023-04-01T01:37:31;10.20;99.90
20204;DHT22;10261;49.010;12.034;2023-04-01T01:38:34;10.20;99.90
20204;DHT22;10261;49.010;12.034;2023-04-01T01:39:37;10.20;99.90
20204;DHT22;10261;49.010;12.034;2023-04-01T01:40:44;10.20;99.90
20204;DHT22;10261;49.010;12.034;2023-04-01T01:41:48;10.30;99.90
20204;DHT22;10261;49.010;12.034;2023-04-01T01:42:54;10.20;99.90
20204;DHT22;10261;49.010;12.034;2023-04-01T01:43:58;11.70;99.90
20204;DHT22;10261;49.010;12.034;2023-04-01T01:45:04;10.20;99.90
20204;DHT22;10261;49.010;12.034;2023-04-01T01:46:10;10.30;99.90
20204;DHT22;10261;49.010;12.034;2023-04-01T01:47:14;10.30;99.90
20204;DHT22;10261;49.010;12.034;2023-04-01T01:48:17;10.30;99.90
20204;DHT22;10261;49.010;12.034;2023-04-01T01:49:22;10.30;99.90
20204;DHT22;10261;49.010;12.034;2023-04-01T01:50:27;10.20;99.90
20204;DHT22;10261;49.010;12.034;2023-04-01T01:51:30;10.30;99.90
20204;DHT22;10261;49.010;12.034;2023-04-01T01:52:33;10.30;99.90
20204;DHT22;10261;49.010;12.034;2023-04-01T01:53:36;10.30;99.90
20204;DHT22;10261;49.010;12.034;2023-04-01T01:54:47;10.30;99.90
20204;DHT22;10261;49.010;12.034;2023-04-01T01:55:49;10.30;99.90
20204;DHT22;10261;49.010;12.034;2023-04-01T01:56:59;10.30;99.90
20204;DHT22;10261;49.010;12.034;2023-04-01T01:58:07;10.20;99.90
20204;DHT22;10261;49.010;12.034;2023-04-01T01:59:14;10.30;99.90
20204;DHT22;10261;49.010;12.034;2023-04-01T02:00:18;10.20;99.90
20204;DHT22;10261;49.010;12.034;2023-04-01T02:01:25;10.30;99.90
20204;DHT22;10261;49.010;12.034;2023-04-01T02:02:28;10.30;99.90
20204;DHT22;10261;49.010;12.034;2023-04-01T02:03:35;10.30;99.90
20204;DHT22;10261;49.010;12.034;2023-04-01T02:04:40;10.30;99.90
20204;DHT22;10261;49.010;12.034;2023-04-01T02:05:46;10.30;99.90
20204;DHT22;10261;49.010;12.034;2023-04-01T02:06:54;10.30;99.90
20204;DHT22;10261;49.010;12.034;2023-04-01T02:08:01;10.30;99.90
20204;DHT22;10261;49.010;12.034;2023-04-01T02:09:07;10.20;99.90
20204;DHT22;10261;49.010;12.034;2023-04-01T02:10:12;10.30;99.90
20204;DHT22;10261;49.010;12.034;2023-04-01T02:11:16;10.30;99.90
20204;DHT22;10261;49.010;12.034;2023-04-01T02:12:21;10.30;99.90
20204;DHT22;10261;49.010;12.034;2023-04-01T02:13:30;10.30;99.90
20204;DHT22;10261;49.010;12.034;2023-04-01T02:14:38;10.40;99.90
20204;DHT22;10261;49.010;12.034;2023-04-01T02:15:45;10.30;99.90
20204;DHT22;10261;49.010;12.034;2023-04-01T02:16:53;10.30;99.90
20204;DHT22;10261;49.010;12.034;2023-04-01T02:17:57;10.30;99.90
20204;DHT22;10261;49.010;12.034;2023-04-01T02:19:01;10.30;99.90
20204;DHT22;10261;49.010;12.034;2023-04-01T02:20:09;10.30;99.90
20204;DHT22;10261;49.010;12.034;2023-04-01T02:21:15;10.30;99.90
20204;DHT22;10261;49.010;12.034;2023-04-01T02:22:21;10.30;99.90
20204;DHT22;10261;49.010;12.034;2023-04-01T02:23:26;10.30;99.90
20204;DHT22;10261;49.010;12.034;2023-04-01T02:24:32;10.30;99.90
20204;DHT22;10261;49.010;12.034;2023-04-01T02:25:37;10.30;99.90
20204;DHT22;10261;49.010;12.034;2023-04-01T02:26:41;10.30;99.90
20204;DHT22;10261;49.010;12.034;2023-04-01T02:27:44;10.30;99.90
20204;DHT22;10261;49.010;12.034;2023-04-01T02:28:49;10.30;99.90
20204;DHT22;10261;49.010;12.034;2023-04-01T02:29:52;10.30;99.90
20204;DHT22;10261;49.010;12.034;2023-04-01T02:30:57;10.30;99.90
20204;DHT22;10261;49.010;12.034;2023-04-01T02:32:02;10.30;99.90
20204;DHT22;10261;49.010;12.034;2023-04-01T02:33:06;10.30;99.90
20204;DHT22;10261;49.010;12.034;2023-04-01T02:35:13;10.30;99.90
20204;DHT22;10261;49.010;12.034;2023-04-01T02:36:18;10.30;99.90
20204;DHT22;10261;49.010;12.034;2023-04-01T02:37:22;10.30;99.90
20204;DHT22;10261;49.010;12.034;2023-04-01T02:38:24;10.30;99.90
20204;DHT22;10261;49.010;12.034;2023-04-01T02:39:27;10.30;99.90
20204;DHT22;10261;49.010;12.034;2023-04-01T02:40:39;10.30;99.90
20204;DHT22;10261;49.010;12.034;2023-04-01T02:41:44;10.30;99.90
20204;DHT22;10261;49.010;12.034;2023-04-01T02:42:46;10.40;99.90
20204;DHT22;10261;49.010;12.034;2023-04-01T02:43:49;10.30;99.90
20204;DHT22;10261;49.010;12.034;2023-04-01T02:44:51;10.30;99.90
20204;DHT22;10261;49.010;12.034;2023-04-01T02:45:54;10.30;99.90
20204;DHT22;10261;49.010;12.034;2023-04-01T02:46:56;10.30;99.90
20204;DHT22;10261;49.010;12.034;2023-04-01T02:48:00;10.20;99.90
20204;DHT22;10261;49.010;12.034;2023-04-01T02:49:02;10.30;99.90
20204;DHT22;10261;49.010;12.034;2023-04-01T02:50:07;10.30;99.90
20204;DHT22;10261;49.010;12.034;2023-04-01T02:51:09;10.30;99.90
20204;DHT22;10261;49.010;12.034;2023-04-01T02:52:13;10.30;99.90
20204;DHT22;10261;49.010;12.034;2023-04-01T02:53:16;10.20;99.90
20204;DHT22;10261;49.010;12.034;2023-04-01T02:55:21;10.30;99.90
20204;DHT22;10261;49.010;12.034;2023-04-01T02:56:24;10.30;99.90
20204;DHT22;10261;49.010;12.034;2023-04-01T02:57:27;10.30;99.90
20204;DHT22;10261;49.010;12.034;2023-04-01T02:59:33;10.30;99.90
20204;DHT22;10261;49.010;12.034;2023-04-01T03:00:35;10.30;99.90
20204;DHT22;10261;49.010;12.034;2023-04-01T03:02:40;10.20;99.90
20204;DHT22;10261;49.010;12.034;2023-04-01T03:03:44;10.20;99.90
20204;DHT22;10261;49.010;12.034;2023-04-01T03:04:46;10.20;99.90
20204;DHT22;10261;49.010;12.034;2023-04-01T03:05:48;10.20;99.90
20204;DHT22;10261;49.010;12.034;2023-04-01T03:06:51;10.20;99.90
20204;DHT22;10261;49.010;12.034;2023-04-01T03:07:55;10.20;99.90
20204;DHT22;10261;49.010;12.034;2023-04-01T03:08:57;10.30;99.90
20204;DHT22;10261;49.010;12.034;2023-04-01T03:11:03;10.30;99.90
20204;DHT22;10261;49.010;12.034;2023-04-01T03:12:06;10.30;99.90
20204;DHT22;10261;49.010;12.034;2023-04-01T03:13:08;10.30;99.90
20204;DHT22;10261;49.010;12.034;2023-04-01T03:14:11;10.30;99.90
20204;DHT22;10261;49.010;12.034;2023-04-01T03:15:13;10.30;99.90
20204;DHT22;10261;49.010;12.034;2023-04-01T03:16:16;10.30;99.90
20204;DHT22;10261;49.010;12.034;2023-04-01T03:18:22;10.30;99.90
20204;DHT22;10261;49.010;12.034;2023-04-01T03:19:24;10.30;99.90
20204;DHT22;10261;49.010;12.034;2023-04-01T03:20:27;10.30;99.90
20204;DHT22;10261;49.010;12.034;2023-04-01T03:21:29;10.30;99.90
20204;DHT22;10261;49.010;12.034;2023-04-01T03:22:32;10.30;99.90
20204;DHT22;10261;49.010;12.034;2023-04-01T03:23:35;10.30;99.90
20204;DHT22;10261;49.010;12.034;2023-04-01T03:24:38;10.30;99.90
20204;DHT22;10261;49.010;12.034;2023-04-01T03:25:40;10.20;99.90
20204;DHT22;10261;49.010;12.034;2023-04-01T03:28:48;10.20;99.90
20204;DHT22;10261;49.010;12.034;2023-04-01T03:30:54;10.10;99.90
20204;DHT22;10261;49.010;12.034;2023-04-01T03:31:56;10.20;99.90
20204;DHT22;10261;49.010;12.034;2023-04-01T03:33:00;10.20;99.90
20204;DHT22;10261;49.010;12.034;2023-04-01T03:34:03;10.10;99.90
20204;DHT22;10261;49.010;12.034;2023-04-01T03:35:06;10.20;99.90
20204;DHT22;10261;49.010;12.034;2023-04-01T03:36:09;10.20;99.90
20204;DHT22;10261;49.010;12.034;2023-04-01T03:37:13;10.20;99.90
20204;DHT22;10261;49.010;12.034;2023-04-01T03:38:16;10.20;99.90
20204;DHT22;10261;49.010;12.034;2023-04-01T03:39:20;10.20;99.90
20204;DHT22;10261;49.010;12.034;2023-04-01T03:40:23;10.20;99.90
20204;DHT22;10261;49.010;12.034;2023-04-01T03:41:25;10.20;99.90
20204;DHT22;10261;49.010;12.034;2023-04-01T03:42:30;10.10;99.90
20204;DHT22;10261;49.010;12.034;2023-04-01T03:43:33;10.10;99.90
20204;DHT22;10261;49.010;12.034;2023-04-01T03:45:43;10.10;99.90
20204;DHT22;10261;49.010;12.034;2023-04-01T03:46:46;10.10;99.90
20204;DHT22;10261;49.010;12.034;2023-04-01T03:47:48;10.20;99.90
20204;DHT22;10261;49.010;12.034;2023-04-01T03:48:51;9.90;99.90
20204;DHT22;10261;49.010;12.034;2023-04-01T03:49:53;9.70;99.90
20204;DHT22;10261;49.010;12.034;2023-04-01T03:51:59;9.70;99.90
20204;DHT22;10261;49.010;12.034;2023-04-01T03:53:02;9.70;99.90
20204;DHT22;10261;49.010;12.034;2023-04-01T03:54:04;9.70;99.90
20204;DHT22;10261;49.010;12.034;2023-04-01T03:55:09;9.60;99.90
20204;DHT22;10261;49.010;12.034;2023-04-01T03:56:11;9.60;99.90
20204;DHT22;10261;49.010;12.034;2023-04-01T03:57:14;9.60;99.90
20204;DHT22;10261;49.010;12.034;2023-04-01T03:58:16;9.60;99.90
20204;DHT22;10261;49.010;12.034;2023-04-01T03:59:19;9.60;99.90
20204;DHT22;10261;49.010;12.034;2023-04-01T04:00:21;9.60;99.90
20204;DHT22;10261;49.010;12.034;2023-04-01T04:01:24;9.60;99.90
20204;DHT22;10261;49.010;12.034;2023-04-01T04:02:26;9.50;99.90
20204;DHT22;10261;49.010;12.034;2023-04-01T04:03:29;9.50;99.90
20204;DHT22;10261;49.010;12.034;2023-04-01T04:04:32;9.50;99.90
20204;DHT22;10261;49.010;12.034;2023-04-01T04:05:35;9.50;99.90
20204;DHT22;10261;49.010;12.034;2023-04-01T04:06:37;9.50;99.90
20204;DHT22;10261;49.010;12.034;2023-04-01T04:07:40;9.50;99.90
20204;DHT22;10261;49.010;12.034;2023-04-01T04:08:42;9.50;99.90
20204;DHT22;10261;49.010;12.034;2023-04-01T04:10:55;9.50;99.90
20204;DHT22;10261;49.010;12.034;2023-04-01T04:11:59;9.50;99.90
20204;DHT22;10261;49.010;12.034;2023-04-01T04:13:02;9.50;99.90
20204;DHT22;10261;49.010;12.034;2023-04-01T04:14:04;9.50;99.90
20204;DHT22;10261;49.010;12.034;2023-04-01T04:15:07;9.50;99.90
20204;DHT22;10261;49.010;12.034;2023-04-01T04:16:10;9.50;99.90
20204;DHT22;10261;49.010;12.034;2023-04-01T04:17:13;9.50;99.90
20204;DHT22;10261;49.010;12.034;2023-04-01T04:18:17;9.50;99.90
20204;DHT22;10261;49.010;12.034;2023-04-01T04:19:20;9.50;99.90
20204;DHT22;10261;49.010;12.034;2023-04-01T04:20:23;9.40;99.90
20204;DHT22;10261;49.010;12.034;2023-04-01T04:21:25;9.50;99.90
20204;DHT22;10261;49.010;12.034;2023-04-01T04:22:28;9.50;99.90
20204;DHT22;10261;49.010;12.034;2023-04-01T04:23:30;9.50;99.90
20204;DHT22;10261;49.010;12.034;2023-04-01T04:24:35;9.50;99.90
20204;DHT22;10261;49.010;12.034;2023-04-01T04:25:37;9.50;99.90
20204;DHT22;10261;49.010;12.034;2023-04-01T04:26:41;9.50;99.90
20204;DHT22;10261;49.010;12.034;2023-04-01T04:27:43;9.50;99.90
20204;DHT22;10261;49.010;12.034;2023-04-01T04:29:49;9.50;99.90
20204;DHT22;10261;49.010;12.034;2023-04-01T04:31:55;9.60;99.90
20204;DHT22;10261;49.010;12.034;2023-04-01T04:32:58;9.50;99.90
20204;DHT22;10261;49.010;12.034;2023-04-01T04:34:00;9.50;99.90
20204;DHT22;10261;49.010;12.034;2023-04-01T04:35:04;9.50;99.90
20204;DHT22;10261;49.010;12.034;2023-04-01T04:36:08;9.50;99.90
20204;DHT22;10261;49.010;12.034;2023-04-01T04:37:11;9.50;99.90
20204;DHT22;10261;49.010;12.034;2023-04-01T04:39:16;9.50;99.90
20204;DHT22;10261;49.010;12.034;2023-04-01T04:40:18;9.40;99.90
20204;DHT22;10261;49.010;12.034;2023-04-01T04:41:21;9.40;99.90
20204;DHT22;10261;49.010;12.034;2023-04-01T04:42:25;9.40;99.90
20204;DHT22;10261;49.010;12.034;2023-04-01T04:43:28;9.40;99.90
20204;DHT22;10261;49.010;12.034;2023-04-01T04:44:30;9.50;99.90
20204;DHT22;10261;49.010;12.034;2023-04-01T04:45:33;9.50;99.90
20204;DHT22;10261;49.010;12.034;2023-04-01T04:46:35;9.40;99.90
20204;DHT22;10261;49.010;12.034;2023-04-01T04:47:39;9.40;99.90
20204;DHT22;10261;49.010;12.034;2023-04-01T04:48:41;9.40;99.90
20204;DHT22;10261;49.010;12.034;2023-04-01T04:50:49;9.50;99.90
20204;DHT22;10261;49.010;12.034;2023-04-01T04:51:52;9.50;99.90
20204;DHT22;10261;49.010;12.034;2023-04-01T04:52:54;9.50;99.90
20204;DHT22;10261;49.010;12.034;2023-04-01T04:53:57;9.50;99.90
20204;DHT22;10261;49.010;12.034;2023-04-01T04:54:59;9.40;99.90
20204;DHT22;10261;49.010;12.034;2023-04-01T04:56:02;9.40;99.90
20204;DHT22;10261;49.010;12.034;2023-04-01T04:57:04;9.40;99.90
20204;DHT22;10261;49.010;12.034;2023-04-01T04:58:08;9.30;99.90
20204;DHT22;10261;49.010;12.034;2023-04-01T04:59:10;9.30;99.90
20204;DHT22;10261;49.010;12.034;2023-04-01T05:00:14;9.30;99.90
20204;DHT22;10261;49.010;12.034;2023-04-01T05:01:17;9.30;99.90
20204;DHT22;10261;49.010;12.034;2023-04-01T05:02:20;9.30;99.90
20204;DHT22;10261;49.010;12.034;2023-04-01T05:03:22;9.40;99.90
20204;DHT22;10261;49.010;12.034;2023-04-01T05:04:25;9.40;99.90
20204;DHT22;10261;49.010;12.034;2023-04-01T05:05:27;9.40;99.90
20204;DHT22;10261;49.010;12.034;2023-04-01T05:06:30;9.40;99.90
20204;DHT22;10261;49.010;12.034;2023-04-01T05:07:33;9.30;99.90
20204;DHT22;10261;49.010;12.034;2023-04-01T05:08:37;9.30;99.90
20204;DHT22;10261;49.010;12.034;2023-04-01T05:09:40;9.30;99.90
20204;DHT22;10261;49.010;12.034;2023-04-01T05:10:43;9.30;99.90
20204;DHT22;10261;49.010;12.034;2023-04-01T05:11:46;9.30;99.90
20204;DHT22;10261;49.010;12.034;2023-04-01T05:12:49;9.30;99.90
20204;DHT22;10261;49.010;12.034;2023-04-01T05:13:52;9.30;99.90
20204;DHT22;10261;49.010;12.034;2023-04-01T05:14:55;9.30;99.90
20204;DHT22;10261;49.010;12.034;2023-04-01T05:15:57;9.30;99.90
20204;DHT22;10261;49.010;12.034;2023-04-01T05:17:00;9.30;99.90
20204;DHT22;10261;49.010;12.034;2023-04-01T05:18:02;9.30;99.90
20204;DHT22;10261;49.010;12.034;2023-04-01T05:19:05;9.30;99.90
20204;DHT22;10261;49.010;12.034;2023-04-01T05:20:08;9.30;99.90
20204;DHT22;10261;49.010;12.034;2023-04-01T05:21:12;9.40;99.90
20204;DHT22;10261;49.010;12.034;2023-04-01T05:23:19;9.40;99.90
20204;DHT22;10261;49.010;12.034;2023-04-01T05:24:22;9.40;99.90
20204;DHT22;10261;49.010;12.034;2023-04-01T05:25:25;9.40;99.90
20204;DHT22;10261;49.010;12.034;2023-04-01T05:26:27;9.40;99.90
20204;DHT22;10261;49.010;12.034;2023-04-01T05:27:30;9.40;99.90
20204;DHT22;10261;49.010;12.034;2023-04-01T05:28:33;9.40;99.90
20204;DHT22;10261;49.010;12.034;2023-04-01T05:29:37;9.40;99.90
20204;DHT22;10261;49.010;12.034;2023-04-01T05:30:40;9.40;99.90
20204;DHT22;10261;49.010;12.034;2023-04-01T05:32:46;9.40;99.90
20204;DHT22;10261;49.010;12.034;2023-04-01T05:33:49;9.40;99.90
20204;DHT22;10261;49.010;12.034;2023-04-01T05:34:51;9.50;99.90
20204;DHT22;10261;49.010;12.034;2023-04-01T05:35:54;9.50;99.90
20204;DHT22;10261;49.010;12.034;2023-04-01T05:36:56;9.40;99.90
20204;DHT22;10261;49.010;12.034;2023-04-01T05:37:59;9.40;99.90
20204;DHT22;10261;49.010;12.034;2023-04-01T05:39:02;9.50;99.90
20204;DHT22;10261;49.010;12.034;2023-04-01T05:40:06;9.40;99.90
20204;DHT22;10261;49.010;12.034;2023-04-01T05:42:11;9.40;99.90
20204;DHT22;10261;49.010;12.034;2023-04-01T05:43:13;9.40;99.90
20204;DHT22;10261;49.010;12.034;2023-04-01T05:44:16;9.50;99.90
20204;DHT22;10261;49.010;12.034;2023-04-01T05:45:19;9.40;99.90
20204;DHT22;10261;49.010;12.034;2023-04-01T05:46:23;9.40;99.90
20204;DHT22;10261;49.010;12.034;2023-04-01T05:47:25;9.40;99.90
20204;DHT22;10261;49.010;12.034;2023-04-01T05:48:28;9.50;99.90
20204;DHT22;10261;49.010;12.034;2023-04-01T05:49:30;9.60;99.90
20204;DHT22;10261;49.010;12.034;2023-04-01T05:50:33;9.50;99.90
20204;DHT22;10261;49.010;12.034;2023-04-01T05:51:35;9.50;99.90
20204;DHT22;10261;49.010;12.034;2023-04-01T05:52:38;9.50;99.90
20204;DHT22;10261;49.010;12.034;2023-04-01T05:53:40;9.50;99.90
20204;DHT22;10261;49.010;12.034;2023-04-01T05:54:43;9.50;99.90
20204;DHT22;10261;49.010;12.034;2023-04-01T05:55:45;9.50;99.90
20204;DHT22;10261;49.010;12.034;2023-04-01T05:56:48;9.50;99.90
20204;DHT22;10261;49.010;12.034;2023-04-01T05:57:50;9.50;99.90
20204;DHT22;10261;49.010;12.034;2023-04-01T05:58:53;9.60;99.90
20204;DHT22;10261;49.010;12.034;2023-04-01T05:59:56;9.60;99.90
20204;DHT22;10261;49.010;12.034;2023-04-01T06:01:02;9.60;99.90
20204;DHT22;10261;49.010;12.034;2023-04-01T06:02:16;9.60;99.90
20204;DHT22;10261;49.010;12.034;2023-04-01T06:03:20;9.50;99.90
20204;DHT22;10261;49.010;12.034;2023-04-01T06:04:22;9.50;99.90
20204;DHT22;10261;49.010;12.034;2023-04-01T06:05:28;9.50;99.90
20204;DHT22;10261;49.010;12.034;2023-04-01T06:06:31;9.50;99.90
20204;DHT22;10261;49.010;12.034;2023-04-01T06:07:34;9.50;99.90
20204;DHT22;10261;49.010;12.034;2023-04-01T06:08:36;9.50;99.90
20204;DHT22;10261;49.010;12.034;2023-04-01T06:09:40;9.50;99.90
20204;DHT22;10261;49.010;12.034;2023-04-01T06:10:53;9.50;99.90
20204;DHT22;10261;49.010;12.034;2023-04-01T06:12:16;9.50;99.90
20204;DHT22;10261;49.010;12.034;2023-04-01T06:13:34;9.50;99.90
20204;DHT22;10261;49.010;12.034;2023-04-01T06:14:48;9.60;99.90
20204;DHT22;10261;49.010;12.034;2023-04-01T06:15:58;9.50;99.90
20204;DHT22;10261;49.010;12.034;2023-04-01T06:17:19;9.50;99.90
20204;DHT22;10261;49.010;12.034;2023-04-01T06:18:48;9.50;99.90
20204;DHT22;10261;49.010;12.034;2023-04-01T06:19:59;9.60;99.90
20204;DHT22;10261;49.010;12.034;2023-04-01T06:21:09;9.60;99.90
20204;DHT22;10261;49.010;12.034;2023-04-01T06:23:50;9.60;99.90
20204;DHT22;10261;49.010;12.034;2023-04-01T06:26:32;9.60;99.90
20204;DHT22;10261;49.010;12.034;2023-04-01T06:27:49;9.60;99.90
20204;DHT22;10261;49.010;12.034;2023-04-01T06:29:15;9.60;99.90
20204;DHT22;10261;49.010;12.034;2023-04-01T06:30:31;9.70;99.90
20204;DHT22;10261;49.010;12.034;2023-04-01T06:31:51;9.70;99.90
20204;DHT22;10261;49.010;12.034;2023-04-01T06:33:21;9.70;99.90
20204;DHT22;10261;49.010;12.034;2023-04-01T06:34:53;9.80;99.90
20204;DHT22;10261;49.010;12.034;2023-04-01T06:36:14;9.90;99.90
20204;DHT22;10261;49.010;12.034;2023-04-01T06:37:33;10.00;99.90
20204;DHT22;10261;49.010;12.034;2023-04-01T06:40:39;10.00;99.90
20204;DHT22;10261;49.010;12.034;2023-04-01T06:42:03;10.10;99.90
20204;DHT22;10261;49.010;12.034;2023-04-01T06:43:15;10.10;99.90
20204;DHT22;10261;49.010;12.034;2023-04-01T06:44:24;10.10;99.90
20204;DHT22;10261;49.010;12.034;2023-04-01T06:45:37;10.20;99.90
20204;DHT22;10261;49.010;12.034;2023-04-01T06:46:46;10.10;99.90
20204;DHT22;10261;49.010;12.034;2023-04-01T06:47:57;10.20;99.90
20204;DHT22;10261;49.010;12.034;2023-04-01T06:50:39;10.10;99.90
20204;DHT22;10261;49.010;12.034;2023-04-01T06:51:50;10.20;99.90
20204;DHT22;10261;49.010;12.034;2023-04-01T06:53:00;10.10;99.90
20204;DHT22;10261;49.010;12.034;2023-04-01T06:54:11;10.10;99.90
20204;DHT22;10261;49.010;12.034;2023-04-01T06:55:32;10.10;99.90
20204;DHT22;10261;49.010;12.034;2023-04-01T06:56:42;10.20;99.90
20204;DHT22;10261;49.010;12.034;2023-04-01T06:57:50;10.30;99.90
20204;DHT22;10261;49.010;12.034;2023-04-01T06:58:55;10.20;99.90
20204;DHT22;10261;49.010;12.034;2023-04-01T07:00:01;10.20;99.90
20204;DHT22;10261;49.010;12.034;2023-04-01T07:01:08;10.10;99.90
20204;DHT22;10261;49.010;12.034;2023-04-01T07:02:21;10.10;99.90
20204;DHT22;10261;49.010;12.034;2023-04-01T07:03:30;10.20;99.90
20204;DHT22;10261;49.010;12.034;2023-04-01T07:04:39;10.20;99.90
20204;DHT22;10261;49.010;12.034;2023-04-01T07:05:42;10.30;99.90
20204;DHT22;10261;49.010;12.034;2023-04-01T07:06:48;10.30;99.90
20204;DHT22;10261;49.010;12.034;2023-04-01T07:07:55;10.40;99.90
20204;DHT22;10261;49.010;12.034;2023-04-01T07:09:02;10.40;99.90
20204;DHT22;10261;49.010;12.034;2023-04-01T07:10:11;10.40;99.90
20204;DHT22;10261;49.010;12.034;2023-04-01T07:11:20;10.40;99.90
20204;DHT22;10261;49.010;12.034;2023-04-01T07:12:33;10.40;99.90
20204;DHT22;10261;49.010;12.034;2023-04-01T07:13:43;10.40;99.90
20204;DHT22;10261;49.010;12.034;2023-04-01T07:14:49;10.40;99.90
20204;DHT22;10261;49.010;12.034;2023-04-01T07:16:02;10.50;99.90
20204;DHT22;10261;49.010;12.034;2023-04-01T07:17:11;10.50;99.90
20204;DHT22;10261;49.010;12.034;2023-04-01T07:18:17;10.50;99.90
20204;DHT22;10261;49.010;12.034;2023-04-01T07:19:24;10.50;99.90